Time;durP1;ratioP1;P1;durP2;ratioP2;P2;SDS_P1;SDS_P2;PMS_P1;PMS_P2;Temp;Humidity;BMP_temperature;BMP_pressure;BME280_temperature;BME280_humidity;BME280_pressure;Samples;Min_cycle;Max_cycle;Signal;HPM_P1;HPM_P2
2022/03/17 00:02:29;;;;;;;65.22;50.40;;;25.90;99.90;;;;;;1918652;74;21626;-86
2022/03/17 00:04:59;;;;;;;63.65;51.42;;;25.90;99.90;;;;;;1919241;75;21083;-86
2022/03/17 00:07:30;;;;;;;64.47;52.43;;;25.90;99.90;;;;;;1914665;75;21130;-86
2022/03/17 00:10:01;;;;;;;61.68;51.30;;;25.90;99.90;;;;;;1919458;74;21156;-86
2022/03/17 00:12:32;;;;;;;59.67;51.75;;;25.90;99.90;;;;;;1915486;74;21052;-87
2022/03/17 00:15:05;;;;;;;58.28;46.42;;;25.90;99.90;;;;;;1921867;74;21122;-87
2022/03/17 00:17:36;;;;;;;50.78;40.65;;;25.90;99.90;;;;;;1914160;73;21122;-87
2022/03/17 00:20:07;;;;;;;53.05;43.25;;;25.80;99.90;;;;;;1915121;73;21158;-87
2022/03/17 00:22:39;;;;;;;49.95;40.10;;;25.90;99.90;;;;;;1912822;73;21134;-88
2022/03/17 00:25:11;;;;;;;48.20;40.10;;;25.90;99.90;;;;;;1914572;73;21240;-87
2022/03/17 00:27:42;;;;;;;48.17;38.58;;;26.00;99.90;;;;;;1918861;73;21083;-86
2022/03/17 00:30:13;;;;;;;48.85;39.48;;;26.00;99.90;;;;;;1910145;74;21137;-87
2022/03/17 00:32:44;;;;;;;46.80;39.20;;;26.00;99.90;;;;;;1917657;74;21213;-88
2022/03/17 00:37:48;;;;;;;42.05;33.15;;;26.10;99.90;;;;;;1917718;74;21183;-88
2022/03/17 00:40:19;;;;;;;44.38;35.25;;;26.10;99.90;;;;;;1919076;74;21721;-88
2022/03/17 00:42:51;;;;;;;49.10;39.98;;;26.20;99.90;;;;;;1919840;75;21089;-87
2022/03/17 00:45:23;;;;;;;52.78;40.85;;;26.30;99.90;;;;;;1920097;74;21208;-87
2022/03/17 00:47:54;;;;;;;55.08;42.65;;;26.40;99.90;;;;;;1922031;74;21068;-87
2022/03/17 00:50:25;;;;;;;52.35;41.25;;;26.40;99.70;;;;;;1919745;75;21237;-87
2022/03/17 00:52:57;;;;;;;57.93;46.33;;;26.40;99.90;;;;;;1919830;75;21130;-88
2022/03/17 00:55:28;;;;;;;52.85;41.98;;;26.40;99.70;;;;;;1919919;74;21171;-88
2022/03/17 00:57:59;;;;;;;53.00;42.05;;;26.40;99.70;;;;;;1919329;75;21220;-88
2022/03/17 01:00:31;;;;;;;47.98;39.40;;;26.40;99.40;;;;;;1919852;75;21127;-88
2022/03/17 01:03:02;;;;;;;51.30;40.38;;;26.40;99.40;;;;;;1920917;74;21144;-85
2022/03/17 01:05:33;;;;;;;48.35;39.33;;;26.40;99.10;;;;;;1916319;75;21087;-86
2022/03/17 01:08:04;;;;;;;46.98;39.83;;;26.40;98.70;;;;;;1919821;75;21127;-85
2022/03/17 01:10:35;;;;;;;48.45;37.53;;;26.40;98.80;;;;;;1918991;75;21232;-87
2022/03/17 01:13:06;;;;;;;46.88;38.15;;;26.30;98.60;;;;;;1919425;74;21121;-86
2022/03/17 01:15:38;;;;;;;46.95;39.40;;;26.30;98.90;;;;;;1903743;75;21175;-85
2022/03/17 01:18:09;;;;;;;51.65;38.42;;;26.40;99.00;;;;;;1919875;75;21170;-85
2022/03/17 01:20:41;;;;;;;47.83;38.08;;;26.50;99.00;;;;;;1905654;74;21067;-85
2022/03/17 01:23:12;;;;;;;48.78;37.88;;;26.50;99.00;;;;;;1919910;74;21076;-86
2022/03/17 01:25:43;;;;;;;40.05;35.10;;;26.60;98.40;;;;;;1915615;75;21163;-86
2022/03/17 01:28:14;;;;;;;45.35;35.95;;;26.70;98.50;;;;;;1917847;75;21535;-86
2022/03/17 01:30:45;;;;;;;44.80;35.75;;;26.70;98.20;;;;;;1909125;74;21123;-86
2022/03/17 01:33:16;;;;;;;40.83;34.40;;;26.80;97.70;;;;;;1919918;74;21164;-86
2022/03/17 01:35:47;;;;;;;50.73;41.18;;;26.90;98.00;;;;;;1912628;74;21150;-87
2022/03/17 01:38:20;;;;;;;42.67;34.95;;;27.00;97.90;;;;;;1913204;74;21180;-85
2022/03/17 01:40:51;;;;;;;45.75;36.20;;;27.00;97.00;;;;;;1919477;75;21099;-87
2022/03/17 01:43:23;;;;;;;41.33;33.02;;;27.10;97.10;;;;;;1920137;74;21131;-87
2022/03/17 01:45:54;;;;;;;40.00;32.70;;;27.10;97.10;;;;;;1919725;74;21224;-87
2022/03/17 01:48:26;;;;;;;43.95;35.85;;;27.20;97.10;;;;;;1919172;75;21108;-86
2022/03/17 01:50:56;;;;;;;47.73;36.08;;;27.30;96.60;;;;;;1917117;75;21710;-85
2022/03/17 01:53:27;;;;;;;46.20;36.70;;;27.30;96.30;;;;;;1887824;74;21228;-87
2022/03/17 01:56:00;;;;;;;45.20;35.85;;;27.30;96.20;;;;;;1878095;75;21186;-87
2022/03/17 01:58:31;;;;;;;45.95;35.10;;;27.40;95.80;;;;;;1895792;75;21110;-85
2022/03/17 02:01:03;;;;;;;46.28;35.60;;;27.50;95.90;;;;;;1880356;75;21155;-86
2022/03/17 02:03:35;;;;;;;47.45;35.85;;;27.50;95.40;;;;;;1879505;74;21120;-86
2022/03/17 02:06:10;;;;;;;46.65;34.85;;;27.60;95.60;;;;;;1920750;74;21122;-85
2022/03/17 02:08:41;;;;;;;47.17;34.18;;;27.70;95.50;;;;;;1917839;74;21142;-87
2022/03/17 02:13:45;;;;;;;45.33;36.53;;;27.80;95.40;;;;;;1917848;74;21126;-86
2022/03/17 02:16:16;;;;;;;50.00;36.85;;;27.90;94.80;;;;;;1919890;74;21112;-84
2022/03/17 02:18:47;;;;;;;43.28;35.50;;;28.00;94.90;;;;;;1924800;74;21067;-85
2022/03/17 02:21:19;;;;;;;44.55;37.48;;;28.10;94.00;;;;;;1924395;74;21099;-87
2022/03/17 02:26:23;;;;;;;45.03;35.90;;;28.20;94.10;;;;;;1918893;73;21134;-85
2022/03/17 02:28:54;;;;;;;41.30;34.25;;;28.30;94.30;;;;;;1873659;76;21190;-85
2022/03/17 02:31:26;;;;;;;49.73;36.42;;;28.30;94.20;;;;;;1883359;75;21194;-83
2022/03/17 02:33:57;;;;;;;43.87;36.75;;;28.40;94.00;;;;;;1910486;75;21083;-85
2022/03/17 02:36:29;;;;;;;43.90;35.63;;;28.50;93.70;;;;;;1919971;75;21224;-85
2022/03/17 02:39:00;;;;;;;44.65;35.10;;;28.60;93.80;;;;;;1900020;74;21737;-86
2022/03/17 02:41:32;;;;;;;41.90;35.68;;;28.70;94.00;;;;;;1919190;75;21259;-86
2022/03/17 02:44:05;;;;;;;43.80;34.43;;;28.70;93.10;;;;;;1920567;74;21122;-85
2022/03/17 02:46:36;;;;;;;41.02;34.45;;;28.80;93.20;;;;;;1923732;74;21077;-85
2022/03/17 02:49:08;;;;;;;42.45;35.40;;;29.00;92.90;;;;;;1920172;75;21186;-84
2022/03/17 02:51:39;;;;;;;43.05;34.58;;;29.10;92.60;;;;;;1920382;75;21151;-85
2022/03/17 02:54:10;;;;;;;41.88;33.65;;;29.10;92.00;;;;;;1919822;75;21183;-85
2022/03/17 02:56:40;;;;;;;41.13;33.95;;;29.30;92.30;;;;;;1920028;75;21189;-85
2022/03/17 02:59:12;;;;;;;38.20;34.10;;;29.40;92.00;;;;;;1915501;74;21202;-86
2022/03/17 03:01:45;;;;;;;39.65;32.55;;;29.50;91.60;;;;;;1896166;74;21100;-86
2022/03/17 03:04:17;;;;;;;41.35;33.73;;;29.50;91.70;;;;;;1909449;74;21136;-85
2022/03/17 03:06:48;;;;;;;37.00;33.10;;;29.60;91.60;;;;;;1912396;74;21056;-84
2022/03/17 03:09:19;;;;;;;43.30;32.75;;;29.70;91.20;;;;;;1871782;75;21270;-84
2022/03/17 03:11:50;;;;;;;41.25;33.13;;;29.80;91.00;;;;;;1840872;76;21233;-84
2022/03/17 03:14:39;;;;;;;37.35;33.25;;;29.90;90.80;;;;;;1839709;76;21087;-84
2022/03/17 03:17:10;;;;;;;43.10;32.98;;;30.00;90.80;;;;;;1862613;76;21164;-84
2022/03/17 03:19:42;;;;;;;36.63;32.48;;;30.00;90.40;;;;;;1852065;77;21127;-87
2022/03/17 03:22:12;;;;;;;43.25;33.55;;;30.10;90.10;;;;;;1875274;75;21191;-85
2022/03/17 03:24:43;;;;;;;36.88;32.38;;;30.10;90.20;;;;;;1884086;76;21132;-84
2022/03/17 03:27:15;;;;;;;44.20;32.15;;;30.20;90.00;;;;;;1911992;74;21080;-84
2022/03/17 03:29:46;;;;;;;35.65;31.77;;;30.40;89.60;;;;;;1874570;75;21459;-85
2022/03/17 03:32:20;;;;;;;37.65;32.20;;;30.50;88.60;;;;;;1870585;76;21135;-84
2022/03/17 03:34:51;;;;;;;33.80;30.08;;;30.60;87.80;;;;;;1882172;74;21225;-85
2022/03/17 03:37:25;;;;;;;35.10;30.75;;;30.70;88.10;;;;;;1884543;74;21627;-84
2022/03/17 03:39:56;;;;;;;35.85;30.65;;;30.80;87.20;;;;;;1883305;75;21088;-85
2022/03/17 03:42:28;;;;;;;35.60;29.85;;;30.90;85.00;;;;;;1868124;75;21093;-85
2022/03/17 03:44:59;;;;;;;34.78;30.57;;;31.00;85.90;;;;;;1916602;74;21152;-84
2022/03/17 03:47:29;;;;;;;32.73;28.87;;;31.10;84.80;;;;;;1919094;74;21224;-85
2022/03/17 03:50:00;;;;;;;34.15;30.48;;;31.20;83.70;;;;;;1920002;74;21060;-85
2022/03/17 03:52:32;;;;;;;35.63;29.48;;;31.30;84.50;;;;;;1913548;74;21115;-85
2022/03/17 03:55:02;;;;;;;34.43;30.57;;;31.40;83.60;;;;;;1888328;74;21117;-84
2022/03/17 03:57:33;;;;;;;32.73;29.23;;;31.50;83.00;;;;;;1894689;74;21125;-83
2022/03/17 04:02:43;;;;;;;31.85;28.45;;;31.70;80.50;;;;;;1915070;74;21149;-84
2022/03/17 04:05:17;;;;;;;34.10;29.23;;;31.70;81.10;;;;;;1907585;74;21148;-86
2022/03/17 04:07:49;;;;;;;32.53;28.40;;;31.90;81.30;;;;;;1909229;75;21121;-85
2022/03/17 04:10:21;;;;;;;34.67;28.87;;;32.00;80.90;;;;;;1840008;75;21155;-84
2022/03/17 04:12:52;;;;;;;33.55;27.85;;;32.10;80.60;;;;;;1889822;75;21148;-86
2022/03/17 04:15:23;;;;;;;31.25;27.98;;;32.20;80.60;;;;;;1912472;75;21157;-86
2022/03/17 04:17:54;;;;;;;32.80;27.40;;;32.30;79.20;;;;;;1919651;74;21140;-85
2022/03/17 04:20:25;;;;;;;33.18;28.83;;;32.30;79.20;;;;;;1907387;75;21568;-85
2022/03/17 04:22:56;;;;;;;33.58;28.12;;;32.40;79.00;;;;;;1874297;75;21152;-85
2022/03/17 04:25:27;;;;;;;33.98;27.00;;;32.50;80.20;;;;;;1861988;76;21096;-85
2022/03/17 04:27:58;;;;;;;29.98;26.70;;;32.50;78.10;;;;;;1913784;74;21144;-84
2022/03/17 04:30:36;;;;;;;31.23;27.82;;;32.50;77.30;;;;;;1914735;74;21630;-85
2022/03/17 04:33:07;;;;;;;32.35;28.50;;;32.40;79.90;;;;;;1898466;74;21136;-84
2022/03/17 04:35:38;;;;;;;29.52;26.40;;;32.40;76.20;;;;;;1910990;75;21135;-83
2022/03/17 04:38:10;;;;;;;30.60;27.25;;;32.40;77.40;;;;;;1924231;74;21055;-85
2022/03/17 04:40:46;;;;;;;29.82;26.73;;;32.40;77.10;;;;;;1919945;75;21130;-84
2022/03/17 04:43:17;;;;;;;29.60;26.57;;;32.50;77.30;;;;;;1919819;74;21084;-84
2022/03/17 04:45:47;;;;;;;32.33;27.50;;;32.60;78.30;;;;;;1919987;75;21603;-83
2022/03/17 04:48:18;;;;;;;30.15;26.87;;;32.80;75.70;;;;;;1912546;74;21089;-85
2022/03/17 04:50:48;;;;;;;28.27;25.05;;;32.90;76.40;;;;;;1917018;74;21111;-85
2022/03/17 04:55:52;;;;;;;34.00;28.00;;;33.00;75.00;;;;;;1916809;74;21665;-85
2022/03/17 04:58:23;;;;;;;35.58;29.98;;;33.10;77.10;;;;;;1904795;74;21089;-84
2022/03/17 05:00:54;;;;;;;31.25;27.90;;;33.20;79.10;;;;;;1911322;74;21172;-84
2022/03/17 05:03:26;;;;;;;31.02;27.65;;;33.10;79.40;;;;;;1919071;74;21181;-84
2022/03/17 05:05:57;;;;;;;31.95;28.42;;;33.00;78.50;;;;;;1913635;75;21090;-85
2022/03/17 05:08:28;;;;;;;33.13;28.50;;;32.80;79.50;;;;;;1875665;74;21702;-86
2022/03/17 05:10:59;;;;;;;34.55;28.75;;;32.70;79.30;;;;;;1847864;76;21133;-85
2022/03/17 05:13:31;;;;;;;36.90;30.90;;;32.80;80.70;;;;;;1832938;76;21604;-85
2022/03/17 05:16:02;;;;;;;35.23;31.48;;;32.80;80.60;;;;;;1872595;76;21245;-84
2022/03/17 05:18:34;;;;;;;34.83;30.00;;;32.70;81.10;;;;;;1881299;75;21208;-85
2022/03/17 05:21:06;;;;;;;35.70;31.48;;;32.60;81.40;;;;;;1929691;74;21127;-85
2022/03/17 05:23:38;;;;;;;36.45;31.42;;;32.40;82.70;;;;;;1920983;73;21064;-84
2022/03/17 05:26:09;;;;;;;37.23;31.25;;;32.30;82.50;;;;;;1920530;75;21196;-84
2022/03/17 05:28:40;;;;;;;35.25;31.37;;;32.20;83.10;;;;;;1919939;75;21123;-84
2022/03/17 05:31:11;;;;;;;38.65;30.05;;;32.30;83.50;;;;;;1920135;75;21146;-84
2022/03/17 05:33:43;;;;;;;34.60;30.90;;;32.40;83.00;;;;;;1920091;74;21172;-84
2022/03/17 05:36:20;;;;;;;34.18;30.57;;;32.50;81.60;;;;;;1919729;74;21119;-83
2022/03/17 05:38:51;;;;;;;38.63;32.90;;;32.50;81.70;;;;;;1920254;75;21115;-86
2022/03/17 05:41:22;;;;;;;35.38;30.60;;;32.50;80.90;;;;;;1920228;75;21103;-84
2022/03/17 05:43:53;;;;;;;33.90;30.32;;;32.70;82.00;;;;;;1920082;74;21145;-84
2022/03/17 05:46:25;;;;;;;37.20;30.32;;;32.80;82.00;;;;;;1920354;75;21178;-83
2022/03/17 05:48:57;;;;;;;33.88;30.27;;;33.00;81.30;;;;;;1921119;75;21134;-85
2022/03/17 05:51:27;;;;;;;33.40;29.77;;;33.00;80.20;;;;;;1923869;74;21072;-85
2022/03/17 05:53:58;;;;;;;38.73;31.00;;;33.10;80.60;;;;;;1922513;72;21310;-86
2022/03/17 05:56:31;;;;;;;33.65;30.05;;;33.20;79.70;;;;;;1927602;73;21195;-86
2022/03/17 05:59:04;;;;;;;35.05;29.57;;;33.20;79.50;;;;;;1889953;73;21115;-85
2022/03/17 06:01:35;;;;;;;35.38;31.23;;;33.30;79.60;;;;;;1865870;75;21140;-85
2022/03/17 06:04:06;;;;;;;34.03;28.62;;;33.30;79.70;;;;;;1901113;74;21151;-86
2022/03/17 06:06:37;;;;;;;34.88;29.57;;;33.20;79.50;;;;;;1887084;76;21084;-86
2022/03/17 06:09:08;;;;;;;34.67;30.05;;;33.10;79.70;;;;;;1876924;76;21133;-84
2022/03/17 06:11:41;;;;;;;32.80;29.12;;;33.00;79.80;;;;;;1889686;76;21154;-85
2022/03/17 06:14:11;;;;;;;33.90;29.98;;;33.10;79.50;;;;;;1909179;74;21212;-83
2022/03/17 06:16:43;;;;;;;35.38;29.32;;;33.20;80.00;;;;;;1884255;75;21148;-84
2022/03/17 06:19:14;;;;;;;34.67;29.87;;;33.20;79.90;;;;;;1858178;76;21611;-84
2022/03/17 06:21:45;;;;;;;33.55;29.77;;;33.30;79.30;;;;;;1910225;72;21052;-85
2022/03/17 06:24:16;;;;;;;33.67;28.75;;;33.40;78.70;;;;;;1919106;73;21629;-86
2022/03/17 06:26:53;;;;;;;32.03;28.60;;;33.40;78.60;;;;;;1880742;75;21111;-86
2022/03/17 06:29:24;;;;;;;31.02;27.27;;;33.50;77.30;;;;;;1907338;74;21099;-86
2022/03/17 06:31:56;;;;;;;31.68;28.38;;;33.30;77.90;;;;;;1892405;74;21111;-86
2022/03/17 06:34:27;;;;;;;41.65;34.05;;;33.30;77.90;;;;;;1912745;74;21531;-86
2022/03/17 06:36:58;;;;;;;32.90;29.35;;;33.30;78.10;;;;;;1873404;75;21178;-87
2022/03/17 06:39:29;;;;;;;33.85;27.82;;;33.20;78.30;;;;;;1882243;74;21156;-85
2022/03/17 06:42:03;;;;;;;31.85;28.55;;;33.20;80.10;;;;;;1877810;76;21151;-86
2022/03/17 06:44:34;;;;;;;31.48;27.60;;;33.20;78.10;;;;;;1906220;73;21131;-86
2022/03/17 06:47:06;;;;;;;35.33;28.83;;;33.10;77.90;;;;;;1947918;73;21099;-85
2022/03/17 06:49:37;;;;;;;32.73;29.23;;;33.10;77.80;;;;;;1950523;73;21163;-86
2022/03/17 06:52:09;;;;;;;30.70;27.48;;;33.00;77.60;;;;;;1943385;73;21075;-84
2022/03/17 06:54:40;;;;;;;32.55;27.98;;;32.90;77.60;;;;;;1942866;73;21200;-85
2022/03/17 06:57:11;;;;;;;31.20;27.80;;;32.80;78.30;;;;;;1952959;73;21127;-85
2022/03/17 06:59:43;;;;;;;29.75;26.27;;;32.80;78.10;;;;;;1938535;73;21365;-86
2022/03/17 07:02:14;;;;;;;32.25;28.77;;;32.80;77.90;;;;;;1927736;73;21281;-86
2022/03/17 07:04:46;;;;;;;31.00;26.27;;;32.80;77.30;;;;;;1936598;73;21048;-85
2022/03/17 07:07:17;;;;;;;30.05;26.85;;;32.80;77.60;;;;;;1935142;73;21072;-82
2022/03/17 07:09:48;;;;;;;30.45;26.60;;;32.80;78.00;;;;;;1949212;73;21224;-85
2022/03/17 07:12:19;;;;;;;31.23;27.80;;;32.70;78.70;;;;;;1952194;73;21227;-85
2022/03/17 07:14:50;;;;;;;29.40;26.35;;;32.70;78.20;;;;;;1943007;73;21064;-87
2022/03/17 07:17:22;;;;;;;31.20;27.90;;;32.60;78.10;;;;;;1938417;73;21107;-86
2022/03/17 07:22:28;;;;;;;29.80;26.73;;;32.50;78.80;;;;;;1959026;73;21084;-87
2022/03/17 07:24:59;;;;;;;29.55;26.35;;;32.40;78.30;;;;;;1936633;73;21189;-85
2022/03/17 07:27:32;;;;;;;31.85;27.70;;;32.40;78.10;;;;;;1949764;73;21261;-85
2022/03/17 07:30:22;;;;;;;30.10;26.93;;;32.30;78.40;;;;;;1946869;73;21107;-87
2022/03/17 07:32:55;;;;;;;30.92;26.07;;;32.30;78.50;;;;;;1944286;73;21131;-86
2022/03/17 07:35:27;;;;;;;30.05;26.85;;;32.30;77.90;;;;;;1939019;73;21176;-86
2022/03/17 07:37:58;;;;;;;29.77;26.57;;;32.40;78.40;;;;;;1936814;73;21055;-87
2022/03/17 07:40:29;;;;;;;27.65;24.67;;;32.50;77.80;;;;;;1939316;73;21692;-87
2022/03/17 07:43:00;;;;;;;28.65;25.48;;;32.50;77.40;;;;;;1951149;73;21103;-86
2022/03/17 07:45:31;;;;;;;28.35;25.37;;;32.60;76.80;;;;;;1926096;73;21636;-87
2022/03/17 07:48:02;;;;;;;30.72;25.52;;;32.70;76.90;;;;;;1956560;73;21139;-87
2022/03/17 07:50:34;;;;;;;28.12;24.95;;;32.80;75.60;;;;;;1934246;73;21111;-86
2022/03/17 07:53:05;;;;;;;27.50;24.60;;;32.80;76.30;;;;;;1948397;73;21068;-86
2022/03/17 07:55:37;;;;;;;27.55;24.67;;;32.80;77.90;;;;;;1942595;73;21067;-86
2022/03/17 07:58:10;;;;;;;27.58;24.47;;;32.80;75.60;;;;;;1946230;73;21160;-87
2022/03/17 08:00:42;;;;;;;27.00;24.20;;;32.80;74.70;;;;;;1942290;73;21153;-87
2022/03/17 08:03:13;;;;;;;29.25;26.12;;;32.80;74.50;;;;;;1932783;73;21594;-87
2022/03/17 08:05:46;;;;;;;29.55;24.85;;;32.80;75.60;;;;;;1941690;73;21068;-86
2022/03/17 08:08:18;;;;;;;27.85;24.85;;;32.90;75.70;;;;;;1944427;73;21593;-86
2022/03/17 08:10:49;;;;;;;27.15;24.37;;;32.90;76.20;;;;;;1933409;73;21079;-86
2022/03/17 08:13:22;;;;;;;29.80;26.45;;;33.00;76.10;;;;;;1943634;73;21127;-87
2022/03/17 08:15:54;;;;;;;29.48;25.02;;;33.00;74.00;;;;;;1947099;73;21103;-86
2022/03/17 08:18:25;;;;;;;28.02;25.10;;;33.10;75.00;;;;;;1942280;73;21122;-87
2022/03/17 08:20:56;;;;;;;27.10;24.23;;;33.00;73.90;;;;;;1936628;73;21103;-87
2022/03/17 08:23:27;;;;;;;28.90;25.72;;;33.00;74.60;;;;;;1926917;73;21508;-87
2022/03/17 08:25:58;;;;;;;28.45;25.43;;;33.00;74.40;;;;;;1940943;73;21075;-86
2022/03/17 08:28:30;;;;;;;26.82;24.12;;;32.90;74.60;;;;;;1927541;73;21142;-87
2022/03/17 08:31:01;;;;;;;27.40;24.25;;;32.80;74.50;;;;;;1955242;73;21221;-87
2022/03/17 08:33:32;;;;;;;27.02;24.32;;;32.80;74.80;;;;;;1943319;73;21645;-88
2022/03/17 08:36:03;;;;;;;28.15;25.05;;;32.70;74.50;;;;;;1936496;73;21166;-88
2022/03/17 08:38:35;;;;;;;34.30;24.52;;;32.60;75.50;;;;;;1927443;73;21063;-87
2022/03/17 08:41:06;;;;;;;26.95;24.25;;;32.70;75.80;;;;;;1935593;73;21110;-87
2022/03/17 08:43:37;;;;;;;28.27;25.20;;;32.70;74.60;;;;;;1954774;73;21114;-88
2022/03/17 08:51:14;;;;;;;27.02;23.90;;;32.70;74.70;;;;;;1947861;73;21103;-87
2022/03/17 08:53:45;;;;;;;26.05;22.30;;;32.70;74.20;;;;;;1903281;74;21156;-88
2022/03/17 08:56:17;;;;;;;30.00;24.50;;;32.70;74.00;;;;;;1915029;74;21124;-88
2022/03/17 08:58:48;;;;;;;26.27;23.47;;;32.80;73.80;;;;;;1918640;74;21200;-87
2022/03/17 09:01:19;;;;;;;26.82;24.02;;;32.80;74.10;;;;;;1967896;72;21056;-88
2022/03/17 09:03:52;;;;;;;26.73;24.02;;;32.80;74.30;;;;;;1952563;72;21127;-88
2022/03/17 09:06:25;;;;;;;27.17;24.43;;;32.90;74.00;;;;;;1908979;74;21226;-88
2022/03/17 09:08:56;;;;;;;27.73;24.67;;;32.90;73.70;;;;;;1859948;75;21178;-88
2022/03/17 09:11:28;;;;;;;27.98;25.00;;;32.90;73.40;;;;;;1916504;74;21124;-87
2022/03/17 09:14:04;;;;;;;26.07;23.35;;;32.80;73.50;;;;;;1880018;75;21619;-87
2022/03/17 09:16:36;;;;;;;27.45;23.75;;;32.80;72.10;;;;;;1915469;74;21165;-88
2022/03/17 09:19:08;;;;;;;26.77;24.07;;;32.80;73.70;;;;;;1901239;75;21119;-87
2022/03/17 09:21:39;;;;;;;27.13;24.35;;;32.80;73.70;;;;;;1954497;73;21591;-86
2022/03/17 09:24:10;;;;;;;28.60;24.10;;;32.80;74.90;;;;;;1905863;74;21174;-88
2022/03/17 09:26:41;;;;;;;27.48;24.63;;;32.70;73.10;;;;;;1898068;74;21228;-87
2022/03/17 09:29:12;;;;;;;26.95;24.18;;;32.70;72.90;;;;;;1891964;73;21126;-88
2022/03/17 09:31:44;;;;;;;28.12;24.67;;;32.70;72.80;;;;;;1900863;75;21178;-88
2022/03/17 09:34:15;;;;;;;25.90;23.20;;;32.60;73.30;;;;;;1916265;75;21228;-88
2022/03/17 09:36:46;;;;;;;29.37;25.80;;;32.60;74.10;;;;;;1922646;73;21173;-88
2022/03/17 09:41:50;;;;;;;26.68;23.98;;;32.50;73.90;;;;;;1917402;74;21151;-87
2022/03/17 09:44:21;;;;;;;26.55;23.73;;;32.40;73.80;;;;;;1968292;72;21071;-87
2022/03/17 09:46:55;;;;;;;29.05;24.82;;;32.40;74.10;;;;;;1935590;74;21160;-88
2022/03/17 09:49:26;;;;;;;26.75;24.05;;;32.40;73.80;;;;;;1942418;73;21174;-89
2022/03/17 09:51:58;;;;;;;27.40;24.57;;;32.40;74.20;;;;;;1932751;72;21182;-89
2022/03/17 09:54:29;;;;;;;26.68;23.98;;;32.30;74.30;;;;;;1905478;75;21123;-87
2022/03/17 09:57:01;;;;;;;29.63;24.02;;;32.30;74.50;;;;;;1923609;73;21107;-91
2022/03/17 09:59:33;;;;;;;26.52;23.32;;;32.20;74.40;;;;;;1873601;76;21165;-88
2022/03/17 10:02:04;;;;;;;25.60;23.10;;;32.20;74.70;;;;;;1884100;76;21157;-87
2022/03/17 10:04:36;;;;;;;25.72;23.12;;;32.20;74.50;;;;;;1914664;74;21100;-87
2022/03/17 10:07:07;;;;;;;26.73;23.80;;;32.20;74.70;;;;;;1959072;73;21138;-87
2022/03/17 10:09:45;;;;;;;26.65;23.95;;;32.20;74.50;;;;;;1925590;74;21135;-88
2022/03/17 10:12:20;;;;;;;26.23;23.38;;;32.20;74.40;;;;;;1929665;73;21103;-86
2022/03/17 10:14:53;;;;;;;25.60;22.22;;;32.20;74.40;;;;;;1953948;73;21080;-86
2022/03/17 10:17:32;;;;;;;27.80;23.75;;;32.20;74.40;;;;;;1927705;73;21077;-87
2022/03/17 10:20:05;;;;;;;26.80;23.95;;;32.20;74.40;;;;;;1930805;74;21174;-87
2022/03/17 10:22:42;;;;;;;27.30;23.70;;;32.20;74.50;;;;;;1881321;75;21537;-87
2022/03/17 10:25:15;;;;;;;26.37;23.70;;;32.20;74.60;;;;;;1952122;72;21561;-87
2022/03/17 10:27:49;;;;;;;26.30;23.50;;;32.20;74.60;;;;;;1908877;73;21216;-86
2022/03/17 10:30:23;;;;;;;26.07;23.40;;;32.20;74.20;;;;;;1958014;73;21134;-88
2022/03/17 10:32:56;;;;;;;25.95;23.32;;;32.20;74.20;;;;;;1964078;73;21190;-88
2022/03/17 10:35:33;;;;;;;25.52;23.10;;;32.10;74.30;;;;;;1916073;74;21178;-88
2022/03/17 10:38:05;;;;;;;26.57;23.85;;;32.10;74.60;;;;;;1926658;74;21248;-88
2022/03/17 10:40:41;;;;;;;28.23;23.55;;;32.10;74.90;;;;;;1944094;73;21088;-88
2022/03/17 10:43:15;;;;;;;27.00;24.20;;;32.10;75.10;;;;;;1916235;74;21248;-86
2022/03/17 10:45:46;;;;;;;26.33;23.70;;;32.10;75.10;;;;;;1924281;72;21119;-87
2022/03/17 10:48:17;;;;;;;28.32;23.65;;;32.00;74.90;;;;;;1891336;76;21087;-86
2022/03/17 10:50:48;;;;;;;25.77;22.93;;;32.00;76.10;;;;;;1882328;75;21168;-87
2022/03/17 10:53:22;;;;;;;25.52;22.75;;;32.00;75.40;;;;;;1880011;75;21119;-87
2022/03/17 10:55:53;;;;;;;32.28;23.92;;;31.90;75.20;;;;;;1915332;74;21088;-87
2022/03/17 10:58:24;;;;;;;27.58;24.70;;;31.90;75.30;;;;;;1915807;74;21229;-87
2022/03/17 11:00:56;;;;;;;25.85;23.07;;;31.90;75.60;;;;;;1950538;73;21067;-88
2022/03/17 11:03:29;;;;;;;25.40;22.60;;;31.90;75.50;;;;;;1950418;73;21180;-86
2022/03/17 11:06:03;;;;;;;28.80;23.45;;;31.80;75.60;;;;;;1915675;74;21068;-87
2022/03/17 11:08:34;;;;;;;27.50;24.75;;;31.80;75.80;;;;;;1927022;74;21597;-87
2022/03/17 11:11:05;;;;;;;28.75;23.45;;;31.70;75.90;;;;;;1954551;73;21107;-87
2022/03/17 11:13:36;;;;;;;26.90;23.85;;;31.70;76.30;;;;;;1927393;74;21112;-88
2022/03/17 11:16:09;;;;;;;29.35;24.37;;;31.70;76.30;;;;;;1932600;73;21679;-86
2022/03/17 11:18:43;;;;;;;28.77;25.60;;;31.70;76.70;;;;;;1915713;74;21134;-88
2022/03/17 11:21:16;;;;;;;28.80;25.57;;;31.70;76.70;;;;;;1883016;75;21139;-86
2022/03/17 11:23:56;;;;;;;28.70;25.60;;;31.70;76.70;;;;;;1900005;73;21147;-86
2022/03/17 11:26:25;;;;;;;30.85;26.97;;;31.70;76.80;;;;;;1932173;73;21144;-88
2022/03/17 11:29:00;;;;;;;30.43;25.77;;;31.70;76.90;;;;;;1953302;73;21170;-88
2022/03/17 11:31:34;;;;;;;29.87;26.75;;;31.60;76.90;;;;;;1955985;73;21150;-88
2022/03/17 11:34:07;;;;;;;30.02;26.80;;;31.60;76.80;;;;;;1917341;73;21111;-90
2022/03/17 11:36:46;;;;;;;30.85;27.42;;;31.60;77.10;;;;;;1959362;73;21133;-86
2022/03/17 11:39:18;;;;;;;32.85;27.10;;;31.60;77.10;;;;;;1921944;73;21209;-88
2022/03/17 11:41:52;;;;;;;29.63;26.02;;;31.60;76.80;;;;;;1959873;72;21075;-89
2022/03/17 11:44:24;;;;;;;35.95;29.67;;;31.60;76.40;;;;;;1943146;71;21311;-87
2022/03/17 11:46:57;;;;;;;35.88;27.82;;;31.60;76.60;;;;;;1953784;71;21201;-89
2022/03/17 11:49:30;;;;;;;30.23;26.40;;;31.60;76.50;;;;;;1956322;73;21197;-88
2022/03/17 11:52:03;;;;;;;35.25;27.32;;;31.60;76.90;;;;;;1955707;72;21135;-89
2022/03/17 11:54:34;;;;;;;33.40;27.42;;;31.60;76.70;;;;;;1912757;74;21142;-88
2022/03/17 11:57:06;;;;;;;34.20;27.82;;;31.50;76.80;;;;;;1909877;74;21608;-89
2022/03/17 11:59:39;;;;;;;31.82;26.55;;;31.50;77.10;;;;;;1904816;74;21194;-88
2022/03/17 12:02:13;;;;;;;29.30;26.12;;;31.50;77.50;;;;;;1873396;76;21174;-89
2022/03/17 12:04:47;;;;;;;33.33;28.87;;;31.50;77.90;;;;;;1867138;76;21147;-89
2022/03/17 12:07:20;;;;;;;34.60;29.87;;;31.40;77.70;;;;;;1927433;73;21068;-88
2022/03/17 12:09:53;;;;;;;35.55;30.60;;;31.50;77.20;;;;;;1927097;74;21245;-89
2022/03/17 12:12:29;;;;;;;32.48;28.07;;;31.40;77.50;;;;;;1922988;75;21388;-90
2022/03/17 12:15:02;;;;;;;30.23;26.90;;;31.40;77.70;;;;;;1884438;75;21264;-90
2022/03/17 12:17:37;;;;;;;29.50;26.30;;;31.40;76.80;;;;;;1921235;75;21127;-89
2022/03/17 12:20:11;;;;;;;32.35;27.67;;;31.40;77.70;;;;;;1941513;73;21083;-89
2022/03/17 12:22:44;;;;;;;28.80;25.75;;;31.40;76.80;;;;;;1941656;73;21264;-88
2022/03/17 12:25:17;;;;;;;34.80;26.20;;;31.30;77.00;;;;;;1944251;74;21115;-87
2022/03/17 12:27:51;;;;;;;31.10;26.35;;;31.30;76.90;;;;;;1933458;73;21107;-88
2022/03/17 12:30:24;;;;;;;29.92;26.25;;;31.30;77.30;;;;;;1945035;73;21142;-88
2022/03/17 12:32:57;;;;;;;29.25;25.30;;;31.30;77.10;;;;;;1897752;73;21482;-89
2022/03/17 12:35:31;;;;;;;29.10;25.65;;;31.30;77.00;;;;;;1897554;75;21116;-89
2022/03/17 12:38:07;;;;;;;31.40;26.77;;;31.30;77.30;;;;;;1963672;72;21036;-90
2022/03/17 12:40:42;;;;;;;32.33;26.12;;;31.30;77.10;;;;;;1936870;74;21136;-90
2022/03/17 12:43:15;;;;;;;34.75;26.60;;;31.20;77.20;;;;;;1929322;73;21228;-90
2022/03/17 12:45:49;;;;;;;33.42;28.02;;;31.20;77.20;;;;;;1923209;73;21088;-89
2022/03/17 12:48:25;;;;;;;32.75;29.42;;;31.30;77.60;;;;;;1917547;75;21117;-90
2022/03/17 12:51:07;;;;;;;31.93;28.45;;;31.20;77.90;;;;;;1874109;73;21108;-88
2022/03/17 12:53:37;;;;;;;31.97;27.35;;;31.20;77.90;;;;;;1926080;74;21747;-88
2022/03/17 12:56:11;;;;;;;32.48;28.95;;;31.20;78.10;;;;;;1922172;74;21115;-89
2022/03/17 12:58:47;;;;;;;32.70;27.45;;;31.20;78.20;;;;;;1932324;73;21111;-90
2022/03/17 13:01:23;;;;;;;31.25;27.93;;;31.20;78.40;;;;;;1921067;73;21129;-89
2022/03/17 13:03:56;;;;;;;31.73;28.47;;;31.20;78.50;;;;;;1916943;75;21246;-89
2022/03/17 13:09:04;;;;;;;35.20;30.52;;;31.10;78.50;;;;;;1952347;73;21149;-89
2022/03/17 13:14:20;;;;;;;34.13;28.73;;;31.10;78.90;;;;;;1909290;73;21127;-88
2022/03/17 13:16:44;;;;;;;34.75;29.82;;;31.10;79.40;;;;;;1918474;73;21123;-90
2022/03/17 13:19:18;;;;;;;31.52;28.23;;;31.10;79.90;;;;;;1890328;75;21190;-89
2022/03/17 13:21:56;;;;;;;34.78;30.72;;;31.00;80.10;;;;;;1888196;74;21257;-89